Time;durP1;ratioP1;P1;durP2;ratioP2;P2;SDS_P1;SDS_P2;PMS_P1;PMS_P2;Temp;Humidity;BMP_temperature;BMP_pressure;BME280_temperature;BME280_humidity;BME280_pressure;Samples;Min_cycle;Max_cycle;Signal;HPM_P1;HPM_P2
2022/03/12 00:00:13;;;;;;;4.15;2.20;;;-1.30;1.40;;;-0.73;69.15;95562.25;619745;222;31949;-76
2022/03/12 00:02:55;;;;;;;3.28;2.37;;;-1.40;1.40;;;-0.75;68.99;95561.75;648305;216;31571;-76
2022/03/12 00:08:44;;;;;;;3.30;2.30;;;-1.30;1.40;;;-0.76;69.94;95559.72;647814;212;31680;-76
2022/03/12 00:11:27;;;;;;;3.08;2.20;;;-1.40;1.40;;;-0.79;69.83;95565.08;647851;216;31562;-77
2022/03/12 00:14:15;;;;;;;4.00;2.50;;;-1.40;1.40;;;-0.82;70.70;95560.75;646926;212;32092;-74
2022/03/12 00:16:59;;;;;;;2.62;1.98;;;-1.40;1.40;;;-0.79;69.94;95568.79;649194;216;31674;-77
2022/03/12 00:22:21;;;;;;;3.72;1.62;;;-1.50;1.40;;;-0.83;70.20;95571.89;646926;216;31616;-75
2022/03/12 00:25:04;;;;;;;1.30;1.20;;;-1.50;1.40;;;-0.89;70.18;95566.86;646755;216;31570;-73
2022/03/12 00:27:46;;;;;;;2.05;1.85;;;-1.60;1.40;;;-0.92;70.37;95569.92;646777;216;31658;-75
2022/03/12 00:30:38;;;;;;;1.55;1.45;;;-1.60;1.40;;;-0.92;70.17;95569.98;621503;222;32503;-76
2022/03/12 00:35:58;;;;;;;5.40;2.25;;;-1.70;1.40;;;-0.96;70.32;95576.72;647300;212;42213;-77
2022/03/12 00:38:38;;;;;;;2.87;1.73;;;-1.70;1.40;;;-1.11;70.72;95569.01;648373;212;31513;-76
2022/03/12 00:41:20;;;;;;;2.90;2.25;;;-1.80;1.40;;;-1.19;71.10;95569.79;647653;216;31597;-76
2022/03/12 00:44:11;;;;;;;4.00;2.00;;;-1.80;1.40;;;-1.13;71.76;95575.05;646606;216;31571;-75
2022/03/12 00:47:03;;;;;;;3.30;2.97;;;-1.80;1.40;;;-1.08;71.58;95573.07;647533;216;32837;-76
2022/03/12 00:49:46;;;;;;;1.80;1.70;;;-1.80;1.40;;;-1.16;71.99;95580.55;648747;216;31998;-75
2022/03/12 00:52:33;;;;;;;2.90;2.08;;;-1.90;1.40;;;-1.25;71.82;95582.73;646677;216;31739;-75
2022/03/12 00:55:15;;;;;;;5.00;2.90;;;-2.00;1.40;;;-1.33;73.91;95586.96;647284;212;31976;-74
2022/03/12 00:57:58;;;;;;;2.90;2.30;;;-2.00;1.40;;;-1.34;73.71;95587.68;647545;212;31549;-77
2022/03/12 01:00:40;;;;;;;2.00;1.60;;;-2.00;1.40;;;-1.39;73.52;95587.50;648819;216;31517;-76
2022/03/12 01:03:24;;;;;;;2.20;2.00;;;-2.10;1.40;;;-1.42;72.54;95596.03;646650;216;32575;-74
2022/03/12 01:06:05;;;;;;;3.55;1.80;;;-2.10;1.40;;;-1.43;73.55;95592.34;646820;216;31666;-74
2022/03/12 01:08:47;;;;;;;2.28;1.25;;;-2.10;1.40;;;-1.49;73.46;95593.63;634499;216;31947;-76
2022/03/12 01:11:34;;;;;;;4.90;2.50;;;-2.20;1.40;;;-1.49;74.06;95594.97;620606;222;32033;-76
2022/03/12 01:14:19;;;;;;;2.28;1.73;;;-2.20;1.40;;;-1.46;74.64;95584.44;646800;216;31590;-74
2022/03/12 01:17:04;;;;;;;2.62;2.10;;;-2.10;1.40;;;-1.43;73.12;95585.11;648377;216;31676;-76
2022/03/12 01:19:51;;;;;;;4.93;2.30;;;-2.10;1.40;;;-1.47;73.69;95587.22;645623;216;32137;-73
2022/03/12 01:22:35;;;;;;;4.28;2.50;;;-2.20;1.40;;;-1.45;73.87;95591.88;645724;216;31596;-74
2022/03/12 01:25:17;;;;;;;2.40;2.20;;;-2.20;1.40;;;-1.38;72.55;95592.73;648815;216;31527;-76
2022/03/12 01:28:05;;;;;;;3.90;1.92;;;-2.10;1.40;;;-1.44;73.25;95581.69;646082;212;31581;-73
2022/03/12 01:30:54;;;;;;;2.00;1.60;;;-2.30;1.40;;;-1.53;73.75;95579.76;620505;226;32172;-76
2022/03/12 01:35:53;;;;;;;2.42;2.00;;;-2.30;1.40;;;-1.60;73.82;95580.85;647099;213;31898;-75
2022/03/12 01:38:35;;;;;;;1.27;1.17;;;-2.40;1.40;;;-1.75;74.74;95573.27;646879;216;31627;-73
2022/03/12 01:41:17;;;;;;;2.70;1.70;;;-2.50;1.40;;;-1.84;75.87;95577.20;646744;212;32097;-74
2022/03/12 01:43:58;;;;;;;3.50;2.20;;;-2.60;1.40;;;-1.97;76.29;95573.36;647332;212;42211;-76
2022/03/12 01:46:43;;;;;;;2.33;1.67;;;-2.80;1.40;;;-2.04;76.53;95577.35;632126;218;31831;-76
2022/03/12 01:49:26;;;;;;;2.67;2.45;;;-2.80;1.40;;;-2.08;77.12;95577.16;647617;216;31635;-73
2022/03/12 01:52:10;;;;;;;4.15;1.95;;;-2.80;1.40;;;-2.04;77.80;95576.94;647559;216;31620;-76
2022/03/12 01:54:52;;;;;;;3.03;2.33;;;-2.80;1.40;;;-2.02;77.92;95571.32;647269;216;31548;-76
2022/03/12 01:57:35;;;;;;;6.93;2.10;;;-2.70;1.40;;;-1.87;76.47;95569.75;647107;212;32129;-75
2022/03/12 02:00:22;;;;;;;2.60;2.17;;;-2.70;1.40;;;-1.90;76.57;95574.61;648439;212;31555;-76
2022/03/12 02:03:06;;;;;;;2.60;2.20;;;-2.70;1.40;;;-1.99;77.21;95580.02;645838;216;31630;-74
2022/03/12 02:05:50;;;;;;;2.30;1.83;;;-2.70;1.40;;;-2.13;77.21;95580.69;648331;212;31528;-76
2022/03/12 02:08:31;;;;;;;2.80;1.50;;;-2.80;1.40;;;-2.16;77.92;95581.20;649928;216;31488;-75
2022/03/12 02:11:13;;;;;;;1.80;1.70;;;-2.80;1.40;;;-2.06;76.80;95583.38;646848;212;31632;-76
2022/03/12 02:14:02;;;;;;;2.50;2.30;;;-2.80;1.40;;;-1.95;77.04;95586.95;648177;212;32191;-76
2022/03/12 02:16:46;;;;;;;2.90;2.60;;;-2.70;1.40;;;-2.00;77.92;95588.09;617011;227;42540;-76
2022/03/12 02:19:29;;;;;;;2.30;2.10;;;-2.70;1.40;;;-2.14;77.78;95592.30;646238;216;31589;-75
2022/03/12 02:22:14;;;;;;;2.28;2.08;;;-2.80;1.40;;;-2.06;77.31;95591.84;646758;213;31605;-74
2022/03/12 02:24:55;;;;;;;5.22;3.28;;;-2.80;1.40;;;-1.96;77.05;95598.62;645170;216;31666;-73
2022/03/12 02:27:40;;;;;;;2.75;2.10;;;-2.90;1.40;;;-2.07;77.14;95595.45;620802;222;31890;-76
2022/03/12 02:30:28;;;;;;;2.53;1.87;;;-2.90;1.40;;;-2.22;79.67;95601.09;619477;222;31866;-76
2022/03/12 02:35:52;;;;;;;1.80;1.50;;;-2.90;1.40;;;-2.23;79.55;95598.00;646773;216;31872;-74
2022/03/12 02:38:40;;;;;;;2.20;1.00;;;-3.00;1.40;;;-2.07;77.75;95593.29;648459;216;31612;-77
2022/03/12 02:41:21;;;;;;;3.00;1.35;;;-2.90;1.40;;;-2.08;77.45;95591.81;643664;216;31580;-77
2022/03/12 02:44:03;;;;;;;1.52;1.40;;;-2.90;1.40;;;-2.20;78.82;95592.18;647830;216;31565;-76
2022/03/12 02:47:05;;;;;;;1.67;1.58;;;-3.00;1.40;;;-2.37;80.85;95587.30;648527;216;31547;-76
2022/03/12 02:49:50;;;;;;;1.90;1.80;;;-3.10;1.40;;;-2.37;79.83;95594.92;646259;216;31578;-73
2022/03/12 02:55:17;;;;;;;1.90;1.50;;;-3.10;1.40;;;-2.48;81.38;95599.19;646197;216;32238;-75
2022/03/12 02:58:09;;;;;;;4.30;1.73;;;-3.20;1.40;;;-2.53;80.32;95603.83;647305;216;31594;-77
2022/03/12 03:00:48;;;;;;;2.90;2.70;;;-3.20;1.40;;;-2.54;81.70;95597.47;620475;222;31817;-76
2022/03/12 03:03:51;;;;;;;2.28;1.75;;;-3.10;1.40;;;-2.54;83.61;95593.88;649450;212;31527;-77
2022/03/12 03:06:40;;;;;;;2.75;1.95;;;-3.00;1.40;;;-2.48;83.49;95591.80;645502;216;31532;-76
2022/03/12 03:12:03;;;;;;;2.60;2.40;;;-3.00;1.40;;;-2.41;81.95;95597.58;637287;221;34676;-75
2022/03/12 03:14:48;;;;;;;2.20;1.50;;;-3.10;1.40;;;-2.39;81.81;95601.50;647636;212;31607;-76
2022/03/12 03:17:34;;;;;;;2.72;1.60;;;-3.10;1.40;;;-2.28;82.15;95603.85;619800;226;32024;-73
2022/03/12 03:20:14;;;;;;;1.52;1.40;;;-3.00;1.40;;;-2.75;86.59;95613.20;619224;226;31917;-74
2022/03/12 03:23:01;;;;;;;4.05;2.53;;;-3.60;1.40;;;-3.28;96.13;95615.47;647304;212;31612;-75
2022/03/12 03:25:48;;;;;;;2.08;1.87;;;-3.80;1.40;;;-3.23;99.52;95608.01;646642;216;42202;-74
2022/03/12 03:31:11;;;;;;;2.00;1.30;;;-3.70;1.40;;;-3.14;100.00;95594.31;647766;216;31547;-76
2022/03/12 03:35:57;;;;;;;3.30;2.08;;;-3.70;1.40;;;-3.07;97.71;95599.44;646581;216;31706;-74
2022/03/12 03:38:45;;;;;;;1.27;1.15;;;-3.70;1.40;;;-3.10;98.25;95597.33;643277;217;31560;-76
2022/03/12 03:41:26;;;;;;;2.08;1.70;;;-3.80;1.40;;;-3.13;96.43;95604.07;647952;216;31530;-76
2022/03/12 03:44:10;;;;;;;1.87;1.40;;;-3.80;1.40;;;-3.12;97.30;95608.51;646332;216;31656;-76
2022/03/12 03:46:52;;;;;;;4.82;2.60;;;-3.70;1.40;;;-3.08;96.23;95609.02;646518;216;31527;-73
2022/03/12 03:49:34;;;;;;;1.83;1.73;;;-3.70;1.40;;;-3.10;97.02;95609.77;618609;226;31961;-74
2022/03/12 03:52:21;;;;;;;1.60;1.50;;;-3.60;1.40;;;-3.09;97.83;95603.66;647677;212;31647;-76
2022/03/12 03:55:03;;;;;;;1.30;1.10;;;-3.70;1.40;;;-3.03;96.46;95605.55;620248;226;32221;-76
2022/03/12 03:57:48;;;;;;;2.00;1.10;;;-3.60;1.40;;;-2.99;96.65;95608.17;619557;226;31915;-77
2022/03/12 04:00:34;;;;;;;3.62;2.12;;;-3.60;1.40;;;-3.01;96.06;95601.92;648368;216;31532;-76
2022/03/12 04:03:22;;;;;;;1.60;1.50;;;-3.60;1.40;;;-3.02;94.00;95597.26;621201;222;31962;-76
2022/03/12 04:06:12;;;;;;;1.60;1.30;;;-3.60;1.40;;;-2.99;94.41;95598.75;621658;222;31950;-77
2022/03/12 04:08:56;;;;;;;2.60;1.70;;;-3.60;1.40;;;-2.98;95.84;95601.73;643748;216;31604;-74
2022/03/12 04:11:44;;;;;;;1.00;1.00;;;-3.50;1.40;;;-2.96;95.42;95596.15;646522;216;31603;-77
2022/03/12 04:14:31;;;;;;;2.10;1.62;;;-3.60;1.40;;;-2.90;95.50;95595.70;646544;212;32126;-75
2022/03/12 04:17:24;;;;;;;2.15;1.67;;;-3.60;1.40;;;-2.90;95.13;95591.53;649814;216;31569;-77
2022/03/12 04:20:15;;;;;;;3.42;2.12;;;-3.50;1.40;;;-2.83;95.02;95591.05;647225;216;31918;-76
2022/03/12 04:23:03;;;;;;;2.05;1.40;;;-3.50;1.40;;;-2.87;94.93;95593.31;631297;217;31683;-75
2022/03/12 04:25:51;;;;;;;2.00;1.80;;;-3.50;1.40;;;-2.79;94.28;95590.27;650202;212;32104;-76
2022/03/12 04:28:45;;;;;;;1.27;0.80;;;-3.60;1.40;;;-2.82;95.28;95593.68;618053;222;42561;-75
2022/03/12 04:31:26;;;;;;;2.15;1.58;;;-3.60;1.40;;;-2.75;94.63;95591.02;631258;221;32149;-74
2022/03/12 04:35:52;;;;;;;2.78;1.58;;;-3.60;1.40;;;-3.15;98.29;95588.78;636474;221;31737;-75
2022/03/12 04:38:33;;;;;;;1.90;1.70;;;-3.80;1.40;;;-3.31;100.00;95599.14;646227;216;31572;-76
2022/03/12 04:41:17;;;;;;;2.97;1.40;;;-4.10;1.40;;;-3.50;100.00;95606.33;648107;216;42281;-76
2022/03/12 04:44:06;;;;;;;2.15;1.62;;;-4.10;1.40;;;-3.55;100.00;95608.46;618460;226;31955;-74
2022/03/12 04:46:52;;;;;;;1.65;1.55;;;-4.20;1.40;;;-3.22;100.00;95604.16;642737;213;43044;-74
2022/03/12 04:49:40;;;;;;;2.33;1.55;;;-4.00;1.40;;;-3.42;100.00;95610.52;648631;212;31556;-75
2022/03/12 04:52:25;;;;;;;2.85;1.75;;;-4.10;1.40;;;-3.52;100.00;95620.36;647917;213;42262;-76
2022/03/12 04:55:09;;;;;;;1.80;1.30;;;-4.10;1.40;;;-3.57;100.00;95621.41;647061;212;31535;-75
2022/03/12 04:57:54;;;;;;;2.00;1.30;;;-4.10;1.40;;;-3.52;100.00;95621.56;648387;216;31809;-75
2022/03/12 05:00:42;;;;;;;1.30;1.20;;;-4.00;1.40;;;-3.49;100.00;95630.41;645665;216;32889;-74
2022/03/12 05:03:33;;;;;;;1.65;1.55;;;-4.00;1.40;;;-3.50;100.00;95627.56;645896;216;42162;-74
2022/03/12 05:06:23;;;;;;;2.10;1.45;;;-3.90;1.40;;;-3.48;100.00;95629.42;618794;222;31867;-74
2022/03/12 05:09:05;;;;;;;1.60;1.00;;;-3.90;1.40;;;-3.44;99.69;95633.45;646857;216;31604;-74
2022/03/12 05:11:45;;;;;;;2.50;1.40;;;-4.10;1.40;;;-3.41;100.00;95632.13;630973;217;31752;-73
2022/03/12 05:14:32;;;;;;;4.40;1.27;;;-4.00;1.40;;;-3.44;100.00;95637.38;646272;216;31838;-74
2022/03/12 05:17:13;;;;;;;1.70;1.30;;;-4.00;1.40;;;-3.42;99.75;95639.20;619365;222;42894;-76
2022/03/12 05:19:54;;;;;;;3.47;2.05;;;-4.10;1.40;;;-3.43;98.06;95641.63;647323;212;42285;-74
2022/03/12 05:22:39;;;;;;;2.80;1.05;;;-4.20;1.40;;;-3.59;99.96;95648.41;646330;212;31609;-74
2022/03/12 05:25:21;;;;;;;2.35;1.20;;;-4.30;1.40;;;-3.53;99.38;95647.61;646904;212;31565;-76
2022/03/12 05:28:03;;;;;;;4.20;2.40;;;-4.30;1.40;;;-3.62;100.00;95652.98;646525;212;31623;-74
2022/03/12 05:30:45;;;;;;;1.70;1.60;;;-4.30;1.40;;;-3.62;100.00;95653.14;645366;212;31519;-75
2022/03/12 05:35:53;;;;;;;1.27;1.17;;;-4.20;1.40;;;-3.55;100.00;95659.06;646940;216;31581;-74
2022/03/12 05:38:36;;;;;;;1.80;1.10;;;-4.10;1.40;;;-3.51;100.00;95650.42;631083;217;32427;-75
2022/03/12 05:41:17;;;;;;;3.40;1.90;;;-4.10;1.40;;;-3.43;100.00;95647.53;646678;216;42289;-74
2022/03/12 05:54:39;;;;;;;1.40;0.98;;;-4.00;1.40;;;-3.39;100.00;95656.45;618805;226;32432;-74
2022/03/12 05:57:27;;;;;;;1.33;1.23;;;-3.90;1.40;;;-3.36;100.00;95660.49;647692;212;31523;-77
2022/03/12 06:00:11;;;;;;;4.35;1.90;;;-3.90;1.40;;;-3.28;100.00;95670.70;649966;216;42705;-76
2022/03/12 06:03:01;;;;;;;1.98;1.75;;;-3.90;1.40;;;-3.28;99.89;95671.66;646962;212;42658;-73
2022/03/12 06:05:54;;;;;;;3.00;1.95;;;-3.80;1.40;;;-3.29;100.00;95671.45;646632;216;32315;-76
2022/03/12 06:08:36;;;;;;;3.35;1.92;;;-3.70;1.40;;;-3.21;100.00;95663.53;646841;212;42748;-73
2022/03/12 06:11:19;;;;;;;2.80;1.52;;;-3.70;1.40;;;-3.10;100.00;95662.91;647199;212;31554;-75
2022/03/12 06:14:06;;;;;;;2.10;1.23;;;-3.70;1.40;;;-2.98;100.00;95675.55;648560;216;31556;-76
2022/03/12 06:16:54;;;;;;;1.70;1.60;;;-3.60;1.40;;;-2.98;100.00;95673.27;646031;216;31544;-75
2022/03/12 06:19:34;;;;;;;2.72;2.08;;;-3.70;1.40;;;-2.84;100.00;95681.13;647123;216;43037;-74
2022/03/12 06:35:54;;;;;;;2.50;2.17;;;-3.60;1.40;;;-2.72;100.00;95687.25;648436;216;32232;-75
2022/03/12 06:38:37;;;;;;;3.42;1.70;;;-3.50;1.40;;;-2.71;100.00;95690.02;617990;222;31952;-75
2022/03/12 06:41:20;;;;;;;2.35;1.92;;;-3.40;1.40;;;-2.52;100.00;95691.73;651296;216;32031;-75
2022/03/12 06:44:00;;;;;;;3.00;1.50;;;-3.30;1.40;;;-2.26;100.00;95690.87;648616;212;31838;-75
2022/03/12 06:46:41;;;;;;;2.70;1.60;;;-3.10;1.40;;;-1.97;99.28;95698.02;646313;216;31612;-76
2022/03/12 06:49:26;;;;;;;1.52;1.40;;;-2.90;1.40;;;-1.89;98.30;95704.75;619070;222;42536;-75
2022/03/12 06:52:09;;;;;;;2.65;2.45;;;-2.80;1.40;;;-1.79;97.87;95706.50;647129;216;31588;-75
2022/03/12 06:54:56;;;;;;;2.50;2.10;;;-2.70;1.40;;;-1.89;98.01;95697.59;647781;216;42235;-76
2022/03/12 06:57:42;;;;;;;2.53;2.22;;;-2.70;1.40;;;-1.85;99.76;95703.31;645170;216;31695;-75
2022/03/12 07:00:31;;;;;;;4.25;2.60;;;-2.60;1.40;;;-1.65;100.00;95702.59;642515;215;31562;-73
2022/03/12 07:03:22;;;;;;;6.03;3.25;;;-2.50;1.40;;;-1.46;99.53;95713.64;618563;224;31901;-75
2022/03/12 07:19:15;;;;;;;1.90;1.42;;;-1.70;1.40;;;-0.81;99.38;95717.46;647265;216;31630;-76
2022/03/12 07:22:03;;;;;;;2.50;1.95;;;-1.50;1.40;;;-0.50;97.83;95717.55;648864;216;31597;-76
2022/03/12 07:24:50;;;;;;;2.25;2.05;;;-1.20;1.40;;;-0.29;95.70;95714.98;646977;212;32105;-76
2022/03/12 07:27:34;;;;;;;2.45;2.25;;;-1.00;1.40;;;-0.11;90.92;95713.62;646607;216;42257;-76
2022/03/12 07:30:22;;;;;;;3.40;1.60;;;-0.80;1.40;;;0.12;87.18;95712.32;647816;216;31593;-74
2022/03/12 07:35:57;;;;;;;5.43;3.28;;;-0.50;1.40;;;0.34;83.36;95715.67;647399;216;31589;-76
2022/03/12 07:38:38;;;;;;;3.90;2.70;;;-0.30;1.40;;;0.87;83.08;95719.02;620959;226;31924;-76
2022/03/12 07:41:21;;;;;;;10.93;3.20;;;0.00;1.40;;;1.26;81.30;95726.86;649965;212;31824;-77
2022/03/12 07:44:08;;;;;;;2.50;2.30;;;0.20;1.40;;;1.59;79.43;95717.31;652067;216;31549;-76
2022/03/12 07:46:49;;;;;;;2.45;2.25;;;0.40;1.40;;;1.46;77.78;95719.73;650535;215;31549;-76
2022/03/12 07:49:31;;;;;;;3.67;2.80;;;0.40;1.40;;;1.00;76.27;95721.23;648413;212;31722;-76
2022/03/12 07:52:14;;;;;;;2.80;2.50;;;0.30;1.40;;;0.91;76.92;95723.48;621330;226;43366;-76
2022/03/12 07:54:55;;;;;;;6.70;2.10;;;0.30;1.40;;;1.33;77.63;95720.62;651708;212;32596;-76
2022/03/12 07:57:36;;;;;;;4.15;3.10;;;0.60;1.40;;;1.66;77.74;95720.36;647282;212;31574;-77
2022/03/12 08:00:21;;;;;;;2.05;1.95;;;0.90;1.40;;;2.08;77.84;95719.20;645250;212;31918;-77
2022/03/12 08:03:03;;;;;;;2.58;2.37;;;1.20;1.40;;;2.22;76.93;95716.45;646545;216;31624;-78
2022/03/12 08:05:50;;;;;;;4.12;2.65;;;1.30;1.40;;;2.52;75.25;95719.61;650015;216;31577;-77
2022/03/12 08:08:32;;;;;;;4.70;3.03;;;1.50;1.40;;;2.79;73.83;95718.16;630838;222;31766;-78
2022/03/12 08:14:08;;;;;;;4.80;2.40;;;1.80;1.40;;;3.04;72.86;95706.31;645922;216;31591;-77
2022/03/12 08:16:55;;;;;;;3.95;2.40;;;1.90;1.40;;;3.19;70.47;95705.64;618142;222;32123;-77
2022/03/12 08:19:39;;;;;;;4.80;2.92;;;2.20;1.40;;;3.24;70.57;95700.08;652852;216;32092;-77
2022/03/12 08:22:21;;;;;;;4.80;2.30;;;2.20;1.40;;;3.14;70.01;95701.59;647652;212;31572;-77
2022/03/12 08:25:09;;;;;;;4.50;3.28;;;2.40;1.40;;;3.83;69.83;95702.58;646515;213;31831;-76
2022/03/12 08:27:52;;;;;;;2.80;2.55;;;2.80;1.40;;;3.94;68.20;95702.43;647517;212;32153;-77
2022/03/12 08:30:35;;;;;;;3.30;2.50;;;2.90;1.40;;;3.96;67.28;95700.89;643391;216;31664;-77
2022/03/12 08:35:52;;;;;;;4.85;3.22;;;3.30;1.40;;;4.24;68.31;95702.99;647671;216;32151;-77
2022/03/12 08:38:34;;;;;;;4.25;3.37;;;3.40;1.40;;;4.25;66.46;95706.01;646684;216;31598;-78
2022/03/12 08:41:15;;;;;;;3.75;2.60;;;3.30;1.40;;;4.36;68.51;95704.06;647932;212;31639;-76
2022/03/12 08:43:59;;;;;;;6.22;3.72;;;3.50;1.40;;;4.98;66.96;95703.01;619936;223;31948;-75
2022/03/12 08:46:46;;;;;;;4.07;3.40;;;4.10;1.40;;;5.39;66.91;95701.58;648188;216;31552;-76
2022/03/12 08:49:32;;;;;;;5.30;3.65;;;4.50;1.40;;;5.49;64.72;95700.23;647565;216;32531;-76
2022/03/12 08:52:14;;;;;;;4.15;3.20;;;4.60;1.40;;;6.09;64.88;95692.04;619874;222;31918;-77
2022/03/12 08:54:58;;;;;;;3.95;2.60;;;5.00;1.40;;;6.13;63.54;95695.64;646175;212;31617;-76
2022/03/12 08:57:46;;;;;;;7.03;4.50;;;5.40;1.40;;;6.89;64.57;95693.14;620352;226;32086;-77
2022/03/12 09:00:28;;;;;;;4.75;3.20;;;6.20;1.40;;;7.16;62.33;95690.20;647360;212;32157;-77
2022/03/12 09:03:17;;;;;;;5.18;3.62;;;6.40;1.40;;;7.67;60.83;95697.65;645889;216;41866;-75
2022/03/12 09:06:07;;;;;;;5.35;4.07;;;6.70;1.40;;;8.04;60.27;95689.55;647472;212;31565;-77
2022/03/12 09:08:55;;;;;;;6.30;4.60;;;7.30;1.40;;;8.34;56.78;95684.66;633259;216;42718;-75
2022/03/12 09:11:39;;;;;;;5.95;4.15;;;8.80;1.40;;;10.76;54.12;95682.77;621197;226;32078;-77
2022/03/12 09:14:22;;;;;;;3.80;3.40;;;12.30;1.40;;;13.28;47.67;95676.02;647367;212;31591;-77
2022/03/12 09:17:13;;;;;;;8.35;4.97;;;13.60;1.40;;;14.60;45.33;95673.34;647931;216;42234;-79
2022/03/12 09:20:01;;;;;;;7.37;4.60;;;14.40;1.40;;;15.68;43.02;95669.05;645119;216;31603;-76
2022/03/12 09:22:48;;;;;;;6.70;4.23;;;14.50;1.40;;;17.53;41.51;95663.84;621215;226;42551;-76
2022/03/12 09:25:30;;;;;;;6.90;4.45;;;14.50;1.40;;;18.23;42.83;95666.94;647588;212;32183;-77
2022/03/12 09:28:13;;;;;;;7.28;5.00;;;15.30;1.40;;;18.93;34.80;95666.19;619923;222;32920;-77
2022/03/12 09:30:54;;;;;;;5.75;4.70;;;16.50;1.40;;;19.31;37.75;95660.22;620479;226;31928;-76
2022/03/12 09:35:58;;;;;;;9.43;5.90;;;16.90;1.40;;;18.16;30.85;95671.23;646160;216;31997;-75
2022/03/12 09:38:46;;;;;;;6.87;5.22;;;16.20;1.40;;;18.86;32.27;95664.92;646882;216;43156;-77
2022/03/12 09:41:27;;;;;;;6.65;5.82;;;16.00;1.40;;;21.56;31.95;95653.48;647382;212;31706;-76
2022/03/12 09:44:16;;;;;;;6.80;4.93;;;17.60;1.40;;;23.15;30.39;95654.97;648147;216;32020;-76
2022/03/12 09:47:00;;;;;;;7.25;5.60;;;17.50;1.40;;;22.93;28.59;95655.06;647136;216;31700;-76
2022/03/12 09:49:50;;;;;;;6.00;5.35;;;18.40;1.40;;;23.27;30.76;95654.83;646627;216;31628;-76
2022/03/12 09:52:38;;;;;;;6.00;5.40;;;17.90;1.40;;;19.78;28.89;95662.16;647471;216;31534;-76
2022/03/12 09:55:22;;;;;;;5.85;5.25;;;16.70;1.40;;;22.88;30.40;95649.82;646548;216;31755;-76
2022/03/12 09:58:08;;;;;;;6.28;5.40;;;17.50;1.40;;;23.99;27.95;95646.17;647361;216;42361;-76
2022/03/12 10:00:50;;;;;;;7.05;5.80;;;18.50;1.40;;;22.82;30.95;95650.37;647638;212;31547;-76
2022/03/12 10:03:34;;;;;;;6.00;5.00;;;17.90;1.40;;;23.75;27.20;95645.24;649397;216;31686;-76
2022/03/12 10:06:20;;;;;;;6.10;5.50;;;17.90;1.40;;;23.62;28.36;95649.77;646762;216;31778;-77
2022/03/12 10:09:03;;;;;;;10.43;6.10;;;18.40;1.40;;;24.31;26.05;95641.45;647744;212;31570;-76
2022/03/12 10:11:45;;;;;;;6.60;5.70;;;18.50;1.40;;;24.00;27.00;95644.20;647914;216;31579;-76
2022/03/12 10:14:31;;;;;;;6.37;5.65;;;18.20;1.40;;;24.85;26.58;95646.59;635899;216;31733;-76
2022/03/12 10:17:13;;;;;;;5.93;4.97;;;19.10;1.40;;;24.29;27.19;95646.31;619167;222;31901;-76
2022/03/12 10:20:01;;;;;;;7.93;6.07;;;18.90;99.90;;;24.04;27.36;95642.66;646186;212;31689;-76
2022/03/12 10:25:16;;;;;;;6.60;5.68;;;17.30;1.40;;;21.19;28.10;95640.20;647454;212;32328;-76
2022/03/12 10:27:58;;;;;;;6.30;5.32;;;18.50;1.40;;;24.34;26.15;95631.55;648387;216;31580;-76
2022/03/12 10:30:46;;;;;;;8.00;6.60;;;18.80;1.40;;;21.70;27.07;95633.89;645822;212;32304;-75
2022/03/12 10:35:52;;;;;;;6.00;5.35;;;19.00;1.40;;;25.75;24.96;95620.97;616518;224;31788;-76
2022/03/12 10:38:42;;;;;;;6.78;5.50;;;19.50;99.90;;;25.97;24.80;95617.52;645996;216;31530;-75
2022/03/12 10:41:31;;;;;;;6.32;5.30;;;19.70;99.90;;;22.70;24.65;95628.09;647573;216;31587;-76
2022/03/12 10:44:15;;;;;;;8.85;5.78;;;18.90;1.40;;;24.59;24.62;95621.14;646525;212;31600;-76
2022/03/12 10:46:57;;;;;;;6.10;5.50;;;19.70;99.90;;;25.17;24.83;95612.69;620862;226;32091;-77
2022/03/12 10:49:38;;;;;;;10.02;6.30;;;19.80;99.90;;;24.97;25.10;95616.12;619546;226;32025;-76
2022/03/12 10:52:20;;;;;;;6.32;5.72;;;19.20;99.90;;;26.81;23.42;95616.84;648281;212;31527;-76
2022/03/12 10:55:23;;;;;;;6.68;5.70;;;20.30;99.90;;;26.09;23.36;95619.20;647184;216;31664;-76
2022/03/12 10:58:07;;;;;;;6.85;5.62;;;20.10;99.90;;;26.14;23.95;95618.53;645414;212;32350;-75
2022/03/12 11:00:56;;;;;;;7.40;5.82;;;20.50;99.90;;;26.98;23.76;95627.31;647267;216;31559;-76
2022/03/12 11:03:38;;;;;;;7.57;5.68;;;20.20;99.90;;;27.80;22.19;95626.12;619842;226;32088;-76
2022/03/12 11:06:20;;;;;;;6.87;5.87;;;20.50;99.90;;;25.97;23.74;95626.36;617827;222;32094;-75
2022/03/12 11:09:03;;;;;;;7.07;6.05;;;19.60;99.90;;;27.58;22.04;95624.11;619363;226;32305;-76
2022/03/12 11:11:45;;;;;;;7.55;6.85;;;19.80;99.90;;;24.17;24.94;95632.38;647542;212;31818;-77
2022/03/12 11:14:28;;;;;;;7.43;5.95;;;20.20;99.90;;;23.23;24.85;95633.19;647809;212;31580;-76
2022/03/12 11:17:11;;;;;;;6.57;5.93;;;19.80;99.90;;;24.46;24.58;95625.44;619561;222;31915;-75
2022/03/12 11:19:57;;;;;;;6.32;5.60;;;19.40;99.90;;;24.29;22.89;95620.76;648165;212;31637;-75
2022/03/12 11:22:35;;;;;;;7.07;5.32;;;20.10;99.90;;;28.53;21.82;95606.45;648493;216;34640;-76
2022/03/12 11:25:28;;;;;;;7.20;5.85;;;21.50;99.90;;;26.56;21.67;95610.23;646462;216;31744;-77
2022/03/12 11:28:18;;;;;;;7.45;6.68;;;21.30;99.90;;;27.41;22.39;95611.77;631376;222;31715;-77
2022/03/12 11:31:06;;;;;;;6.30;5.50;;;21.10;99.90;;;24.14;23.26;95610.25;645069;216;32216;-76
2022/03/12 11:35:59;;;;;;;6.78;6.07;;;19.50;99.90;;;25.53;23.32;95597.63;618467;226;32056;-76
2022/03/12 11:38:42;;;;;;;7.28;6.57;;;19.90;99.90;;;27.37;22.10;95588.36;616447;227;32838;-77
2022/03/12 11:41:26;;;;;;;8.07;6.30;;;20.30;99.90;;;26.34;22.86;95590.72;619752;226;31973;-77
2022/03/12 11:44:07;;;;;;;7.15;5.85;;;21.30;99.90;;;26.83;23.13;95581.79;647543;216;32159;-76
2022/03/12 11:46:49;;;;;;;7.40;6.35;;;21.10;99.90;;;27.89;21.62;95565.50;647428;212;31544;-77
2022/03/12 11:49:32;;;;;;;7.70;6.30;;;21.10;99.90;;;27.58;20.96;95567.91;648031;216;31560;-76
2022/03/12 11:52:13;;;;;;;7.75;5.90;;;20.70;99.90;;;25.55;22.21;95563.75;621290;222;42733;-76
2022/03/12 11:54:55;;;;;;;6.95;6.25;;;20.70;99.90;;;27.65;21.07;95563.52;647558;216;31607;-77
2022/03/12 11:57:36;;;;;;;6.90;6.20;;;21.50;99.90;;;24.84;22.63;95561.86;647012;216;31582;-76
2022/03/12 12:00:20;;;;;;;6.55;5.62;;;20.60;99.90;;;25.25;22.24;95554.25;621435;222;32508;-76
2022/03/12 12:03:01;;;;;;;7.87;6.10;;;20.10;99.90;;;29.44;20.33;95539.97;646387;216;31647;-76
2022/03/12 12:05:47;;;;;;;6.90;6.20;;;21.60;99.90;;;29.27;20.33;95539.88;620394;222;32065;-76
2022/03/12 12:08:28;;;;;;;6.65;6.00;;;21.60;99.90;;;29.89;19.79;95535.06;646585;216;31583;-75
2022/03/12 12:11:11;;;;;;;9.20;7.10;;;21.70;99.90;;;28.49;19.94;95535.16;647373;212;31610;-76
2022/03/12 12:13:53;;;;;;;8.80;6.62;;;20.80;99.90;;;29.61;19.92;95528.92;645876;216;31514;-75
2022/03/12 12:16:34;;;;;;;7.55;6.40;;;21.30;99.90;;;26.30;21.29;95533.50;647029;216;42300;-75
2022/03/12 12:19:21;;;;;;;7.78;6.40;;;20.70;99.90;;;28.67;20.14;95527.80;647374;216;31572;-75
2022/03/12 12:22:07;;;;;;;6.97;6.37;;;21.30;99.90;;;27.20;20.33;95529.97;647880;213;42546;-76
2022/03/12 12:24:47;;;;;;;9.05;6.65;;;21.30;99.90;;;27.03;21.72;95530.95;647329;216;32249;-75
2022/03/12 12:27:50;;;;;;;6.20;5.45;;;21.10;1.40;;;28.71;20.29;95527.23;647809;212;42380;-75
2022/03/12 12:30:38;;;;;;;8.52;6.78;;;21.10;99.90;;;29.49;19.48;95521.55;646550;212;32138;-76
2022/03/12 12:35:52;;;;;;;9.93;7.25;;;21.60;99.90;;;26.26;22.26;95533.69;618949;226;32258;-76
2022/03/12 12:38:34;;;;;;;7.62;6.07;;;20.50;99.90;;;26.40;21.18;95535.21;646564;216;31855;-76
2022/03/12 12:41:16;;;;;;;7.87;7.10;;;21.00;1.40;;;24.71;21.92;95533.56;620236;226;32093;-76
2022/03/12 12:44:08;;;;;;;8.20;6.72;;;20.80;99.90;;;26.28;22.05;95531.33;619754;222;32478;-75
2022/03/12 12:46:50;;;;;;;8.03;5.97;;;21.00;99.90;;;29.15;20.02;95516.56;647759;212;31640;-76
2022/03/12 12:49:40;;;;;;;10.85;6.62;;;21.70;1.40;;;28.21;20.81;95516.50;644969;216;42360;-75
2022/03/12 12:52:19;;;;;;;8.52;7.00;;;21.50;99.90;;;30.43;19.43;95510.17;618726;222;43290;-76
2022/03/12 12:55:07;;;;;;;9.10;6.65;;;21.90;99.90;;;31.01;19.06;95509.80;648008;216;42226;-75
2022/03/12 12:57:50;;;;;;;8.68;7.03;;;22.00;99.90;;;30.35;19.06;95509.14;647187;212;31453;-75
2022/03/12 13:00:34;;;;;;;7.85;6.78;;;22.20;99.90;;;30.37;19.04;95501.99;647013;212;31577;-76
2022/03/12 13:03:17;;;;;;;9.63;7.12;;;23.00;99.90;;;30.86;18.61;95496.08;647648;216;31587;-75